createdAt,value
2023-05-13T00:04:52.353Z,215217.00
2023-05-13T00:10:54.523Z,215204.00
2023-05-13T00:16:58.965Z,215168.00
2023-05-13T00:23:03.531Z,215090.00
2023-05-13T00:29:05.934Z,215050.00
2023-05-13T00:35:08.596Z,215038.00
2023-05-13T00:41:10.864Z,215044.00
2023-05-13T00:47:13.216Z,215030.00
2023-05-13T00:53:17.314Z,215002.00
2023-05-13T00:59:19.765Z,214966.00
2023-05-13T01:05:43.306Z,214952.00
2023-05-13T01:11:46.486Z,214897.00
2023-05-13T01:18:02.989Z,214827.00
2023-05-13T01:24:06.244Z,214779.00
2023-05-13T01:30:10.336Z,214737.00
2023-05-13T01:36:14.197Z,214695.00
2023-05-13T01:42:19.770Z,214626.00
2023-05-13T01:48:22.226Z,214537.00
2023-05-13T01:54:26.054Z,214488.00
2023-05-13T02:00:33.877Z,214432.00
2023-05-13T02:06:36.592Z,214355.00
2023-05-13T02:12:39.144Z,214321.00
2023-05-13T02:18:41.519Z,214266.00
2023-05-13T02:24:43.911Z,214238.00
2023-05-13T02:30:46.596Z,214219.00
2023-05-13T02:36:49.483Z,214197.00
2023-05-13T02:42:51.791Z,214169.00
2023-05-13T02:49:00.873Z,214155.00
2023-05-13T02:55:09.857Z,214155.00
2023-05-13T03:01:13.065Z,214133.00
2023-05-13T03:07:15.401Z,214141.00
2023-05-13T03:13:17.625Z,214155.00
2023-05-13T03:19:20.096Z,214205.00
2023-05-13T03:25:22.718Z,214280.00
2023-05-13T03:31:30.174Z,214382.00
2023-05-13T03:37:35.131Z,214537.00
2023-05-13T03:43:37.427Z,214689.00
2023-05-13T03:49:44.585Z,214877.00
2023-05-13T03:55:46.836Z,215072.00
2023-05-13T04:01:49.234Z,215204.00
2023-05-13T04:07:51.552Z,215441.00
2023-05-13T04:13:53.698Z,215692.00
2023-05-13T04:19:56.331Z,215642.00
2023-05-13T04:25:58.619Z,215678.00
2023-05-13T04:32:01.343Z,215797.00
2023-05-13T04:38:05.298Z,216001.00
2023-05-13T04:44:07.912Z,216218.00
2023-05-13T04:50:10.733Z,216332.00
2023-05-13T04:56:13.843Z,216543.00
2023-05-13T05:02:16.220Z,217030.00
2023-05-13T05:08:18.653Z,217532.00
2023-05-13T05:14:22.881Z,217532.00
2023-05-13T05:20:26.694Z,217765.00
2023-05-13T05:26:32.410Z,218052.00
2023-05-13T05:32:35.104Z,218116.00
2023-05-13T05:38:38.834Z,218439.00
2023-05-13T05:44:42.232Z,218824.00
2023-05-13T05:50:44.756Z,219247.00
2023-05-13T05:56:51.536Z,219703.00
2023-05-13T06:02:53.833Z,220029.00
2023-05-13T06:08:56.264Z,221281.00
2023-05-13T06:14:59.294Z,219899.00
2023-05-13T06:21:01.641Z,219687.00
2023-05-13T06:27:03.866Z,219616.00
2023-05-13T06:33:06.608Z,219422.00
2023-05-13T06:39:09.173Z,219269.00
2023-05-13T06:45:12.285Z,219062.00
2023-05-13T06:51:14.700Z,219010.00
2023-05-13T06:57:17.188Z,219233.00
2023-05-13T07:03:23.321Z,219199.00
2023-05-13T07:09:25.725Z,219422.00
2023-05-13T07:15:28.130Z,219660.00
2023-05-13T07:21:30.424Z,219897.00
2023-05-13T07:27:32.755Z,220049.00
2023-05-13T07:33:37.082Z,222567.00
2023-05-13T07:39:39.253Z,223978.00
2023-05-13T07:45:42.570Z,223693.00
2023-05-13T07:51:44.914Z,223256.00
2023-05-13T07:57:47.245Z,223485.00
2023-05-13T08:03:49.755Z,222905.00
2023-05-13T08:09:52.017Z,222721.00
2023-05-13T08:15:54.394Z,222805.00
2023-05-13T08:21:56.806Z,222380.00
2023-05-13T08:27:59.213Z,221882.00
2023-05-13T08:34:01.582Z,220908.00
2023-05-13T08:40:05.244Z,220204.00
2023-05-13T08:46:10.369Z,219711.00
2023-05-13T08:52:12.701Z,219349.00
2023-05-13T08:58:14.866Z,219370.00
2023-05-13T09:04:19.048Z,219163.00
2023-05-13T09:10:21.598Z,219046.00
2023-05-13T09:16:24.065Z,218868.00
2023-05-13T09:22:26.589Z,218860.00
2023-05-13T09:28:28.894Z,218868.00
2023-05-13T09:34:35.555Z,218824.00
2023-05-13T09:40:38.847Z,218794.00
2023-05-13T09:46:43.222Z,218868.00
2023-05-13T09:52:46.216Z,219125.00
2023-05-13T09:58:54.564Z,219357.00
2023-05-13T10:04:57.373Z,219638.00
2023-05-13T10:11:00.226Z,220138.00
2023-05-13T10:17:03.184Z,220079.00
2023-05-13T10:23:05.759Z,219817.00
2023-05-13T10:29:10.735Z,219580.00
2023-05-13T10:35:18.016Z,219717.00
2023-05-13T10:41:41.864Z,220579.00
2023-05-13T10:47:44.113Z,221817.00
2023-05-13T10:53:49.238Z,222324.00
2023-05-13T11:00:16.991Z,222935.00
2023-05-13T11:06:21.687Z,222545.00
2023-05-13T11:12:24.191Z,221874.00
2023-05-13T11:18:35.221Z,221801.00
2023-05-13T11:24:37.691Z,221646.00
2023-05-13T11:30:40.143Z,221858.00
2023-05-13T11:36:45.261Z,221595.00
2023-05-13T11:42:48.396Z,221267.00
2023-05-13T11:48:50.670Z,221185.00
2023-05-13T11:54:57.005Z,221033.00
2023-05-13T12:01:00.443Z,220988.00
2023-05-13T12:07:03.046Z,221074.00
2023-05-13T12:13:05.182Z,221275.00
2023-05-13T12:19:07.572Z,221259.00
2023-05-13T12:25:31.787Z,220864.00
2023-05-13T12:31:35.307Z,221112.00
2023-05-13T12:37:37.519Z,222205.00
2023-05-13T12:43:41.299Z,222773.00
2023-05-13T12:49:57.115Z,222053.00
2023-05-13T12:55:59.224Z,221538.00
2023-05-13T13:02:01.369Z,221017.00
2023-05-13T13:08:05.572Z,220960.00
2023-05-13T13:14:08.716Z,221009.00
2023-05-13T13:20:11.458Z,221237.00
2023-05-13T13:26:13.656Z,221215.00
2023-05-13T13:32:16.059Z,221215.00
2023-05-13T13:38:18.223Z,220849.00
2023-05-13T13:44:20.388Z,220623.00
2023-05-13T13:50:23.028Z,220316.00
2023-05-13T13:56:25.896Z,220108.00
2023-05-13T14:02:28.211Z,220027.00
2023-05-13T14:08:30.614Z,220114.00
2023-05-13T14:14:32.670Z,220294.00
2023-05-13T14:20:36.103Z,220272.00
2023-05-13T14:26:38.738Z,220204.00
2023-05-13T14:32:45.371Z,220196.00
2023-05-13T14:38:47.601Z,220114.00
2023-05-13T14:44:49.981Z,219897.00
2023-05-13T14:50:52.251Z,219935.00
2023-05-13T14:56:54.391Z,219847.00
2023-05-13T15:02:56.746Z,219833.00
2023-05-13T15:08:59.080Z,219867.00
2023-05-13T15:15:01.519Z,219817.00
2023-05-13T15:21:03.730Z,219752.00
2023-05-13T15:27:06.847Z,219725.00
2023-05-13T15:33:09.337Z,219703.00
2023-05-13T15:39:11.755Z,219660.00
2023-05-13T15:45:14.121Z,219630.00
2023-05-13T15:51:16.394Z,219594.00
2023-05-13T15:57:19.456Z,219564.00
2023-05-13T16:03:21.524Z,219542.00
2023-05-13T16:09:23.708Z,219408.00
2023-05-13T16:15:25.974Z,219363.00
2023-05-13T16:21:28.004Z,219291.00
2023-05-13T16:27:30.722Z,219213.00
2023-05-13T16:33:34.073Z,219163.00
2023-05-13T16:39:36.945Z,219083.00
2023-05-13T16:45:39.715Z,219010.00
2023-05-13T16:51:43.178Z,218939.00
2023-05-13T16:57:45.619Z,218854.00
2023-05-13T17:03:47.802Z,218759.00
2023-05-13T17:09:50.242Z,218674.00
2023-05-13T17:15:52.833Z,218595.00
2023-05-13T17:21:54.849Z,218480.00
2023-05-13T17:27:57.060Z,218367.00
2023-05-13T17:33:59.540Z,218264.00
2023-05-13T17:40:03.113Z,218152.00
2023-05-13T17:46:05.580Z,218066.00
2023-05-13T17:52:07.821Z,217979.00
2023-05-13T17:58:10.230Z,217867.00
2023-05-13T18:04:12.330Z,217837.00
2023-05-13T18:10:14.528Z,217803.00
2023-05-13T18:16:19.596Z,217716.00
2023-05-13T18:22:22.097Z,217625.00
2023-05-13T18:28:24.355Z,217546.00
2023-05-13T18:34:26.913Z,217461.00
2023-05-13T18:40:29.420Z,217433.00
2023-05-13T18:46:31.630Z,217348.00
2023-05-13T18:52:33.900Z,217271.00
2023-05-13T18:58:36.206Z,217213.00
2023-05-13T19:04:38.722Z,217189.00
2023-05-13T19:10:41.315Z,217129.00
2023-05-13T19:16:43.600Z,217071.00
2023-05-13T19:22:45.975Z,217057.00
2023-05-13T19:28:48.375Z,217022.00
2023-05-13T19:34:50.912Z,216942.00
2023-05-13T19:40:53.679Z,216854.00
2023-05-13T19:46:56.867Z,216774.00
2023-05-13T19:52:59.200Z,216733.00
2023-05-13T19:59:01.426Z,216647.00
2023-05-13T20:05:03.889Z,216647.00
2023-05-13T20:11:06.222Z,216639.00
2023-05-13T20:17:08.796Z,216613.00
2023-05-13T20:23:13.116Z,216571.00
2023-05-13T20:29:16.768Z,216464.00
2023-05-13T20:35:19.192Z,216420.00
2023-05-13T20:41:22.179Z,216339.00
2023-05-13T20:47:24.379Z,216268.00
2023-05-13T20:53:26.689Z,216254.00
2023-05-13T20:59:28.715Z,216191.00
2023-05-13T21:05:31.450Z,216149.00
2023-05-13T21:11:33.629Z,216078.00
2023-05-13T21:17:35.818Z,216035.00
2023-05-13T21:23:43.460Z,215957.00
2023-05-13T21:29:45.712Z,215987.00
2023-05-13T21:35:47.968Z,215981.00
2023-05-13T21:41:50.376Z,215973.00
2023-05-13T21:47:52.743Z,215959.00
2023-05-13T21:53:55.130Z,215951.00
2023-05-13T21:59:57.352Z,215909.00
2023-05-13T22:05:59.720Z,215880.00
2023-05-13T22:12:02.314Z,215819.00
2023-05-13T22:18:05.051Z,215833.00
2023-05-13T22:24:08.551Z,215847.00
2023-05-13T22:30:11.095Z,215819.00
2023-05-13T22:36:13.980Z,215797.00
2023-05-13T22:42:18.896Z,215866.00
2023-05-13T22:48:21.515Z,215866.00
2023-05-13T22:54:24.316Z,215874.00
2023-05-13T23:00:26.561Z,215833.00
2023-05-13T23:06:28.777Z,215789.00
2023-05-13T23:12:31.186Z,215791.00
2023-05-13T23:18:34.522Z,215756.00
2023-05-13T23:24:37.085Z,215720.00
2023-05-13T23:30:39.840Z,215678.00
2023-05-13T23:36:42.127Z,215628.00
2023-05-13T23:42:44.553Z,215623.00
2023-05-13T23:48:46.772Z,215623.00
2023-05-13T23:54:49.119Z,215596.00
